sensor_id;sensor_type;location;lat;lon;timestamp;temperature;humidity
20839;DHT22;10580;51.092;6.828;2023-06-14T00:01:41;18.30;99.90
20839;DHT22;10580;51.092;6.828;2023-06-14T00:04:06;18.30;99.90
20839;DHT22;10580;51.092;6.828;2023-06-14T00:06:34;18.30;99.90
20839;DHT22;10580;51.092;6.828;2023-06-14T00:08:59;18.10;99.90
20839;DHT22;10580;51.092;6.828;2023-06-14T00:11:25;18.10;99.90
20839;DHT22;10580;51.092;6.828;2023-06-14T00:13:52;18.00;99.90
20839;DHT22;10580;51.092;6.828;2023-06-14T00:16:18;17.90;99.90
20839;DHT22;10580;51.092;6.828;2023-06-14T00:18:45;17.80;99.90
20839;DHT22;10580;51.092;6.828;2023-06-14T00:21:11;17.70;99.90
20839;DHT22;10580;51.092;6.828;2023-06-14T00:23:37;17.70;99.90
20839;DHT22;10580;51.092;6.828;2023-06-14T00:26:03;17.60;99.90
20839;DHT22;10580;51.092;6.828;2023-06-14T00:28:28;17.40;99.90
20839;DHT22;10580;51.092;6.828;2023-06-14T00:30:54;17.40;99.90
20839;DHT22;10580;51.092;6.828;2023-06-14T00:33:20;17.30;99.90
20839;DHT22;10580;51.092;6.828;2023-06-14T00:35:46;17.30;99.90
20839;DHT22;10580;51.092;6.828;2023-06-14T00:38:12;17.20;99.90
20839;DHT22;10580;51.092;6.828;2023-06-14T00:40:38;17.20;99.90
20839;DHT22;10580;51.092;6.828;2023-06-14T00:43:03;17.20;99.90
20839;DHT22;10580;51.092;6.828;2023-06-14T00:45:29;17.10;99.90
20839;DHT22;10580;51.092;6.828;2023-06-14T00:47:57;17.10;99.90
20839;DHT22;10580;51.092;6.828;2023-06-14T00:50:23;17.10;99.90
20839;DHT22;10580;51.092;6.828;2023-06-14T00:52:49;17.00;99.90
20839;DHT22;10580;51.092;6.828;2023-06-14T00:55:15;17.00;99.90
20839;DHT22;10580;51.092;6.828;2023-06-14T00:57:41;17.00;99.90
20839;DHT22;10580;51.092;6.828;2023-06-14T01:00:07;16.90;99.90
20839;DHT22;10580;51.092;6.828;2023-06-14T01:02:38;16.90;99.90
20839;DHT22;10580;51.092;6.828;2023-06-14T01:05:05;16.80;99.90
20839;DHT22;10580;51.092;6.828;2023-06-14T01:10:16;16.70;99.90
20839;DHT22;10580;51.092;6.828;2023-06-14T01:15:21;16.50;99.90
20839;DHT22;10580;51.092;6.828;2023-06-14T01:17:49;16.40;99.90
20839;DHT22;10580;51.092;6.828;2023-06-14T01:20:17;16.40;99.90
20839;DHT22;10580;51.092;6.828;2023-06-14T01:23:03;16.30;99.90
20839;DHT22;10580;51.092;6.828;2023-06-14T01:25:29;16.30;99.90
20839;DHT22;10580;51.092;6.828;2023-06-14T01:28:04;16.20;99.90
20839;DHT22;10580;51.092;6.828;2023-06-14T01:30:37;16.20;99.90
20839;DHT22;10580;51.092;6.828;2023-06-14T01:33:04;16.20;99.90
20839;DHT22;10580;51.092;6.828;2023-06-14T01:35:31;16.10;99.90
20839;DHT22;10580;51.092;6.828;2023-06-14T01:37:57;16.10;99.90
20839;DHT22;10580;51.092;6.828;2023-06-14T01:40:24;16.10;99.90
20839;DHT22;10580;51.092;6.828;2023-06-14T01:42:51;16.10;99.90
20839;DHT22;10580;51.092;6.828;2023-06-14T01:45:17;16.10;99.90
20839;DHT22;10580;51.092;6.828;2023-06-14T01:47:44;16.10;99.90
20839;DHT22;10580;51.092;6.828;2023-06-14T01:50:10;16.10;99.90
20839;DHT22;10580;51.092;6.828;2023-06-14T01:52:37;16.00;99.90
20839;DHT22;10580;51.092;6.828;2023-06-14T01:55:04;16.00;99.90
20839;DHT22;10580;51.092;6.828;2023-06-14T01:57:31;15.90;99.90
20839;DHT22;10580;51.092;6.828;2023-06-14T01:59:56;15.80;99.90
20839;DHT22;10580;51.092;6.828;2023-06-14T02:02:22;15.80;99.90
20839;DHT22;10580;51.092;6.828;2023-06-14T02:04:48;15.80;99.90
20839;DHT22;10580;51.092;6.828;2023-06-14T02:07:14;15.70;99.90
20839;DHT22;10580;51.092;6.828;2023-06-14T02:09:41;15.70;99.90
20839;DHT22;10580;51.092;6.828;2023-06-14T02:12:07;15.60;99.90
20839;DHT22;10580;51.092;6.828;2023-06-14T02:14:32;15.60;99.90
20839;DHT22;10580;51.092;6.828;2023-06-14T02:16:59;15.60;99.90
20839;DHT22;10580;51.092;6.828;2023-06-14T02:19:26;15.50;99.90
20839;DHT22;10580;51.092;6.828;2023-06-14T02:21:51;15.50;99.90
20839;DHT22;10580;51.092;6.828;2023-06-14T02:24:17;15.50;99.90
20839;DHT22;10580;51.092;6.828;2023-06-14T02:26:43;15.50;99.90
20839;DHT22;10580;51.092;6.828;2023-06-14T02:29:08;15.40;99.90
20839;DHT22;10580;51.092;6.828;2023-06-14T02:31:36;15.40;99.90
20839;DHT22;10580;51.092;6.828;2023-06-14T02:34:02;15.30;99.90
20839;DHT22;10580;51.092;6.828;2023-06-14T02:36:28;15.30;99.90
20839;DHT22;10580;51.092;6.828;2023-06-14T02:38:55;15.30;99.90
20839;DHT22;10580;51.092;6.828;2023-06-14T02:41:23;15.20;99.90
20839;DHT22;10580;51.092;6.828;2023-06-14T02:43:49;15.20;99.90
20839;DHT22;10580;51.092;6.828;2023-06-14T02:46:15;15.10;99.90
20839;DHT22;10580;51.092;6.828;2023-06-14T02:48:41;15.10;99.90
20839;DHT22;10580;51.092;6.828;2023-06-14T02:51:06;15.00;99.90
20839;DHT22;10580;51.092;6.828;2023-06-14T02:53:33;15.00;99.90
20839;DHT22;10580;51.092;6.828;2023-06-14T02:55:59;14.90;99.90
20839;DHT22;10580;51.092;6.828;2023-06-14T02:58:26;14.90;99.90
20839;DHT22;10580;51.092;6.828;2023-06-14T03:00:52;14.90;99.90
20839;DHT22;10580;51.092;6.828;2023-06-14T03:03:18;14.90;99.90
20839;DHT22;10580;51.092;6.828;2023-06-14T03:05:47;14.90;99.90
20839;DHT22;10580;51.092;6.828;2023-06-14T03:08:15;14.90;99.90
20839;DHT22;10580;51.092;6.828;2023-06-14T03:10:46;14.90;99.90
20839;DHT22;10580;51.092;6.828;2023-06-14T03:13:12;14.80;99.90
20839;DHT22;10580;51.092;6.828;2023-06-14T03:15:38;14.80;99.90
20839;DHT22;10580;51.092;6.828;2023-06-14T03:18:08;14.80;99.90
20839;DHT22;10580;51.092;6.828;2023-06-14T03:20:37;14.80;99.90
20839;DHT22;10580;51.092;6.828;2023-06-14T03:23:04;14.80;99.90
20839;DHT22;10580;51.092;6.828;2023-06-14T03:25:30;14.70;99.90
20839;DHT22;10580;51.092;6.828;2023-06-14T03:27:57;14.70;99.90
20839;DHT22;10580;51.092;6.828;2023-06-14T03:30:22;14.70;99.90
20839;DHT22;10580;51.092;6.828;2023-06-14T03:32:48;14.70;99.90
20839;DHT22;10580;51.092;6.828;2023-06-14T03:35:17;14.80;99.90
20839;DHT22;10580;51.092;6.828;2023-06-14T03:37:46;14.80;99.90
20839;DHT22;10580;51.092;6.828;2023-06-14T03:40:17;14.90;99.90
20839;DHT22;10580;51.092;6.828;2023-06-14T03:42:43;14.90;99.90
20839;DHT22;10580;51.092;6.828;2023-06-14T03:45:08;15.00;99.90
20839;DHT22;10580;51.092;6.828;2023-06-14T03:47:35;15.00;99.90
20839;DHT22;10580;51.092;6.828;2023-06-14T03:50:02;15.00;99.90
20839;DHT22;10580;51.092;6.828;2023-06-14T03:52:27;15.10;99.90
20839;DHT22;10580;51.092;6.828;2023-06-14T03:54:53;15.00;99.90
20839;DHT22;10580;51.092;6.828;2023-06-14T03:57:19;15.10;99.90
20839;DHT22;10580;51.092;6.828;2023-06-14T03:59:45;15.10;99.90
20839;DHT22;10580;51.092;6.828;2023-06-14T04:02:12;15.10;99.90
20839;DHT22;10580;51.092;6.828;2023-06-14T04:04:40;15.10;99.90
20839;DHT22;10580;51.092;6.828;2023-06-14T04:07:10;15.20;99.90
20839;DHT22;10580;51.092;6.828;2023-06-14T04:09:37;15.20;99.90
20839;DHT22;10580;51.092;6.828;2023-06-14T04:12:03;15.30;99.90
20839;DHT22;10580;51.092;6.828;2023-06-14T04:14:28;15.30;99.90
20839;DHT22;10580;51.092;6.828;2023-06-14T04:16:54;15.40;99.90
20839;DHT22;10580;51.092;6.828;2023-06-14T04:19:20;15.50;99.90
20839;DHT22;10580;51.092;6.828;2023-06-14T04:21:45;15.60;99.90
20839;DHT22;10580;51.092;6.828;2023-06-14T04:24:11;15.70;99.90
20839;DHT22;10580;51.092;6.828;2023-06-14T04:26:39;15.80;99.90
20839;DHT22;10580;51.092;6.828;2023-06-14T04:29:05;15.90;99.90
20839;DHT22;10580;51.092;6.828;2023-06-14T04:31:31;16.10;99.90
20839;DHT22;10580;51.092;6.828;2023-06-14T04:34:03;16.20;99.90
20839;DHT22;10580;51.092;6.828;2023-06-14T04:36:34;16.30;99.90
20839;DHT22;10580;51.092;6.828;2023-06-14T04:39:03;16.50;99.90
20839;DHT22;10580;51.092;6.828;2023-06-14T04:41:32;16.60;99.90
20839;DHT22;10580;51.092;6.828;2023-06-14T04:43:58;16.80;99.90
20839;DHT22;10580;51.092;6.828;2023-06-14T04:46:27;17.00;99.90
20839;DHT22;10580;51.092;6.828;2023-06-14T04:48:53;17.20;99.90
20839;DHT22;10580;51.092;6.828;2023-06-14T04:51:20;17.40;99.90
20839;DHT22;10580;51.092;6.828;2023-06-14T04:53:47;17.60;99.90
20839;DHT22;10580;51.092;6.828;2023-06-14T04:56:15;17.80;99.90
20839;DHT22;10580;51.092;6.828;2023-06-14T04:58:40;17.90;99.90
20839;DHT22;10580;51.092;6.828;2023-06-14T05:01:06;18.20;99.90
20839;DHT22;10580;51.092;6.828;2023-06-14T05:03:34;18.30;99.90
20839;DHT22;10580;51.092;6.828;2023-06-14T05:06:00;18.50;99.90
20839;DHT22;10580;51.092;6.828;2023-06-14T05:08:26;18.60;99.90
20839;DHT22;10580;51.092;6.828;2023-06-14T05:10:52;18.70;99.90
20839;DHT22;10580;51.092;6.828;2023-06-14T05:13:18;18.80;99.90
20839;DHT22;10580;51.092;6.828;2023-06-14T05:15:44;19.00;99.90
20839;DHT22;10580;51.092;6.828;2023-06-14T05:18:10;19.20;99.90
20839;DHT22;10580;51.092;6.828;2023-06-14T05:20:35;19.50;99.90
20839;DHT22;10580;51.092;6.828;2023-06-14T05:23:03;19.60;99.90
20839;DHT22;10580;51.092;6.828;2023-06-14T05:25:28;19.80;99.90
20839;DHT22;10580;51.092;6.828;2023-06-14T05:27:54;20.00;99.90
20839;DHT22;10580;51.092;6.828;2023-06-14T05:30:20;20.10;99.90
20839;DHT22;10580;51.092;6.828;2023-06-14T05:32:45;20.30;99.90
20839;DHT22;10580;51.092;6.828;2023-06-14T05:35:11;20.50;99.90
20839;DHT22;10580;51.092;6.828;2023-06-14T05:37:37;20.80;99.90
20839;DHT22;10580;51.092;6.828;2023-06-14T05:40:04;21.00;99.90
20839;DHT22;10580;51.092;6.828;2023-06-14T05:42:34;21.20;99.90
20839;DHT22;10580;51.092;6.828;2023-06-14T05:44:59;21.50;99.90
20839;DHT22;10580;51.092;6.828;2023-06-14T05:47:25;21.70;99.90
20839;DHT22;10580;51.092;6.828;2023-06-14T05:49:53;21.90;99.90
20839;DHT22;10580;51.092;6.828;2023-06-14T05:52:18;22.10;99.90
20839;DHT22;10580;51.092;6.828;2023-06-14T05:54:44;22.20;99.90
20839;DHT22;10580;51.092;6.828;2023-06-14T05:57:10;22.40;99.90
20839;DHT22;10580;51.092;6.828;2023-06-14T05:59:36;22.50;99.90
20839;DHT22;10580;51.092;6.828;2023-06-14T06:02:01;22.50;99.90
20839;DHT22;10580;51.092;6.828;2023-06-14T06:04:27;22.70;99.90
20839;DHT22;10580;51.092;6.828;2023-06-14T06:06:53;23.00;99.90
20839;DHT22;10580;51.092;6.828;2023-06-14T06:09:18;23.30;99.90
20839;DHT22;10580;51.092;6.828;2023-06-14T06:11:44;23.30;99.90
20839;DHT22;10580;51.092;6.828;2023-06-14T06:14:10;23.40;99.90
20839;DHT22;10580;51.092;6.828;2023-06-14T06:16:35;23.60;99.90
20839;DHT22;10580;51.092;6.828;2023-06-14T06:19:01;23.60;99.90
20839;DHT22;10580;51.092;6.828;2023-06-14T06:21:26;23.40;99.90
20839;DHT22;10580;51.092;6.828;2023-06-14T06:23:52;23.40;99.90
20839;DHT22;10580;51.092;6.828;2023-06-14T06:26:17;23.40;99.90
20839;DHT22;10580;51.092;6.828;2023-06-14T06:28:43;23.80;99.90
20839;DHT22;10580;51.092;6.828;2023-06-14T06:31:08;24.10;99.90
20839;DHT22;10580;51.092;6.828;2023-06-14T06:33:36;24.00;99.90
20839;DHT22;10580;51.092;6.828;2023-06-14T06:36:10;24.10;99.90
20839;DHT22;10580;51.092;6.828;2023-06-14T06:38:48;24.20;99.90
20839;DHT22;10580;51.092;6.828;2023-06-14T06:41:13;24.40;99.90
20839;DHT22;10580;51.092;6.828;2023-06-14T06:43:39;24.50;99.90
20839;DHT22;10580;51.092;6.828;2023-06-14T06:46:10;25.10;99.90
20839;DHT22;10580;51.092;6.828;2023-06-14T06:48:36;25.50;99.90
20839;DHT22;10580;51.092;6.828;2023-06-14T06:51:01;25.70;99.90
20839;DHT22;10580;51.092;6.828;2023-06-14T06:53:42;25.90;99.90
20839;DHT22;10580;51.092;6.828;2023-06-14T06:56:22;26.00;99.90
20839;DHT22;10580;51.092;6.828;2023-06-14T06:59:24;26.20;99.90
20839;DHT22;10580;51.092;6.828;2023-06-14T07:02:05;26.50;99.90
20839;DHT22;10580;51.092;6.828;2023-06-14T07:04:43;27.00;99.90
20839;DHT22;10580;51.092;6.828;2023-06-14T07:10:46;27.40;99.90
20839;DHT22;10580;51.092;6.828;2023-06-14T07:13:26;27.70;99.90
20839;DHT22;10580;51.092;6.828;2023-06-14T07:16:05;27.60;99.90
20839;DHT22;10580;51.092;6.828;2023-06-14T07:18:43;27.70;99.90
20839;DHT22;10580;51.092;6.828;2023-06-14T07:21:09;27.70;99.90
20839;DHT22;10580;51.092;6.828;2023-06-14T07:24:05;27.60;99.90
20839;DHT22;10580;51.092;6.828;2023-06-14T07:26:47;27.50;99.90
20839;DHT22;10580;51.092;6.828;2023-06-14T07:32:42;27.30;99.90
20839;DHT22;10580;51.092;6.828;2023-06-14T07:35:08;26.50;99.90
20839;DHT22;10580;51.092;6.828;2023-06-14T07:44:23;25.50;99.90
20839;DHT22;10580;51.092;6.828;2023-06-14T07:47:04;25.50;99.90
20839;DHT22;10580;51.092;6.828;2023-06-14T07:49:30;25.50;99.90
20839;DHT22;10580;51.092;6.828;2023-06-14T07:51:56;25.40;99.90
20839;DHT22;10580;51.092;6.828;2023-06-14T07:54:35;25.70;99.90
20839;DHT22;10580;51.092;6.828;2023-06-14T07:57:10;25.50;99.90
20839;DHT22;10580;51.092;6.828;2023-06-14T08:09:58;26.30;99.90
20839;DHT22;10580;51.092;6.828;2023-06-14T08:12:49;26.10;99.90
20839;DHT22;10580;51.092;6.828;2023-06-14T08:15:17;26.60;99.90
20839;DHT22;10580;51.092;6.828;2023-06-14T08:17:43;27.00;99.90
20839;DHT22;10580;51.092;6.828;2023-06-14T08:20:10;26.80;99.90
20839;DHT22;10580;51.092;6.828;2023-06-14T08:22:36;27.10;99.90
20839;DHT22;10580;51.092;6.828;2023-06-14T08:25:03;27.40;99.90
20839;DHT22;10580;51.092;6.828;2023-06-14T08:27:29;27.20;99.90
20839;DHT22;10580;51.092;6.828;2023-06-14T08:29:55;27.10;99.90
20839;DHT22;10580;51.092;6.828;2023-06-14T08:32:22;26.90;99.90
20839;DHT22;10580;51.092;6.828;2023-06-14T08:34:47;26.70;99.90
20839;DHT22;10580;51.092;6.828;2023-06-14T08:37:13;26.60;99.90
20839;DHT22;10580;51.092;6.828;2023-06-14T08:39:39;26.50;99.90
20839;DHT22;10580;51.092;6.828;2023-06-14T08:42:07;26.50;99.90
20839;DHT22;10580;51.092;6.828;2023-06-14T08:44:34;26.50;99.90
20839;DHT22;10580;51.092;6.828;2023-06-14T08:47:00;26.60;99.90
20839;DHT22;10580;51.092;6.828;2023-06-14T08:49:27;27.00;99.90
20839;DHT22;10580;51.092;6.828;2023-06-14T08:51:59;26.80;99.90
20839;DHT22;10580;51.092;6.828;2023-06-14T08:54:28;27.00;99.90
20839;DHT22;10580;51.092;6.828;2023-06-14T08:57:02;26.80;99.90
20839;DHT22;10580;51.092;6.828;2023-06-14T08:59:29;27.00;99.90
20839;DHT22;10580;51.092;6.828;2023-06-14T09:01:59;27.40;99.90
20839;DHT22;10580;51.092;6.828;2023-06-14T09:04:25;27.20;99.90
20839;DHT22;10580;51.092;6.828;2023-06-14T09:06:55;27.10;99.90
20839;DHT22;10580;51.092;6.828;2023-06-14T09:09:21;26.70;99.90
20839;DHT22;10580;51.092;6.828;2023-06-14T09:11:52;26.60;99.90
20839;DHT22;10580;51.092;6.828;2023-06-14T09:14:18;26.60;99.90
20839;DHT22;10580;51.092;6.828;2023-06-14T09:16:44;26.40;99.90
20839;DHT22;10580;51.092;6.828;2023-06-14T09:19:21;26.00;99.90
20839;DHT22;10580;51.092;6.828;2023-06-14T09:21:51;26.10;99.90
20839;DHT22;10580;51.092;6.828;2023-06-14T09:24:18;26.50;99.90
20839;DHT22;10580;51.092;6.828;2023-06-14T09:26:47;26.50;99.90
20839;DHT22;10580;51.092;6.828;2023-06-14T09:29:12;26.60;99.90
20839;DHT22;10580;51.092;6.828;2023-06-14T09:31:38;26.60;99.90
20839;DHT22;10580;51.092;6.828;2023-06-14T09:34:05;26.90;99.90
20839;DHT22;10580;51.092;6.828;2023-06-14T09:36:40;26.80;99.90
20839;DHT22;10580;51.092;6.828;2023-06-14T09:39:17;26.60;99.90
20839;DHT22;10580;51.092;6.828;2023-06-14T09:41:48;26.40;99.90
20839;DHT22;10580;51.092;6.828;2023-06-14T09:51:01;26.40;99.90
20839;DHT22;10580;51.092;6.828;2023-06-14T09:53:30;26.20;99.90
20839;DHT22;10580;51.092;6.828;2023-06-14T09:55:58;26.00;99.90
20839;DHT22;10580;51.092;6.828;2023-06-14T09:58:26;25.70;99.90
20839;DHT22;10580;51.092;6.828;2023-06-14T10:00:54;25.50;99.90
20839;DHT22;10580;51.092;6.828;2023-06-14T10:03:35;25.50;99.90
20839;DHT22;10580;51.092;6.828;2023-06-14T10:06:03;26.10;99.90
20839;DHT22;10580;51.092;6.828;2023-06-14T10:08:32;26.50;99.90
20839;DHT22;10580;51.092;6.828;2023-06-14T10:11:08;26.60;99.90
20839;DHT22;10580;51.092;6.828;2023-06-14T10:13:34;26.90;99.90
20839;DHT22;10580;51.092;6.828;2023-06-14T10:16:22;27.10;99.90
20839;DHT22;10580;51.092;6.828;2023-06-14T10:24:32;27.50;99.90
20839;DHT22;10580;51.092;6.828;2023-06-14T10:26:58;27.40;99.90
20839;DHT22;10580;51.092;6.828;2023-06-14T10:29:25;27.40;99.90
20839;DHT22;10580;51.092;6.828;2023-06-14T10:31:56;27.80;99.90
20839;DHT22;10580;51.092;6.828;2023-06-14T10:34:30;28.10;99.90
20839;DHT22;10580;51.092;6.828;2023-06-14T10:37:04;28.10;99.90
20839;DHT22;10580;51.092;6.828;2023-06-14T10:39:33;28.10;99.90
20839;DHT22;10580;51.092;6.828;2023-06-14T11:05:52;28.30;99.90
20839;DHT22;10580;51.092;6.828;2023-06-14T11:10:47;28.30;99.90
20839;DHT22;10580;51.092;6.828;2023-06-14T11:13:16;28.40;99.90
20839;DHT22;10580;51.092;6.828;2023-06-14T11:19:01;28.00;99.90
20839;DHT22;10580;51.092;6.828;2023-06-14T11:21:40;27.90;99.90
20839;DHT22;10580;51.092;6.828;2023-06-14T11:24:10;27.80;99.90
20839;DHT22;10580;51.092;6.828;2023-06-14T11:26:42;27.60;99.90
20839;DHT22;10580;51.092;6.828;2023-06-14T11:29:16;27.40;99.90
20839;DHT22;10580;51.092;6.828;2023-06-14T11:32:21;27.50;99.90
20839;DHT22;10580;51.092;6.828;2023-06-14T11:38:37;27.30;99.90
20839;DHT22;10580;51.092;6.828;2023-06-14T11:50:56;27.50;99.90
20839;DHT22;10580;51.092;6.828;2023-06-14T11:53:40;27.80;99.90
20839;DHT22;10580;51.092;6.828;2023-06-14T11:56:17;27.80;99.90
20839;DHT22;10580;51.092;6.828;2023-06-14T12:02:56;28.10;99.90
20839;DHT22;10580;51.092;6.828;2023-06-14T12:05:40;28.30;99.90
20839;DHT22;10580;51.092;6.828;2023-06-14T12:08:17;28.50;99.90
20839;DHT22;10580;51.092;6.828;2023-06-14T12:10:43;28.80;99.90
20839;DHT22;10580;51.092;6.828;2023-06-14T12:13:17;28.40;99.90
20839;DHT22;10580;51.092;6.828;2023-06-14T12:15:46;28.20;99.90
20839;DHT22;10580;51.092;6.828;2023-06-14T12:18:19;28.20;99.90
20839;DHT22;10580;51.092;6.828;2023-06-14T12:20:49;28.20;99.90
20839;DHT22;10580;51.092;6.828;2023-06-14T12:23:15;28.40;99.90
20839;DHT22;10580;51.092;6.828;2023-06-14T12:25:59;28.80;99.90
20839;DHT22;10580;51.092;6.828;2023-06-14T12:29:20;29.10;99.90
20839;DHT22;10580;51.092;6.828;2023-06-14T12:38:10;29.10;99.90
20839;DHT22;10580;51.092;6.828;2023-06-14T12:40:38;29.00;99.90
20839;DHT22;10580;51.092;6.828;2023-06-14T12:43:04;29.10;99.90
20839;DHT22;10580;51.092;6.828;2023-06-14T12:45:30;29.20;99.90
20839;DHT22;10580;51.092;6.828;2023-06-14T12:48:11;29.20;99.90
20839;DHT22;10580;51.092;6.828;2023-06-14T12:50:47;29.20;99.90
20839;DHT22;10580;51.092;6.828;2023-06-14T12:53:13;29.40;99.90
20839;DHT22;10580;51.092;6.828;2023-06-14T12:55:39;29.10;99.90
20839;DHT22;10580;51.092;6.828;2023-06-14T12:58:05;29.40;99.90
20839;DHT22;10580;51.092;6.828;2023-06-14T13:00:30;29.10;99.90
20839;DHT22;10580;51.092;6.828;2023-06-14T13:02:57;28.90;99.90
20839;DHT22;10580;51.092;6.828;2023-06-14T13:05:23;29.00;99.90
20839;DHT22;10580;51.092;6.828;2023-06-14T13:07:49;29.10;99.90
20839;DHT22;10580;51.092;6.828;2023-06-14T13:10:15;29.20;99.90
20839;DHT22;10580;51.092;6.828;2023-06-14T13:12:41;29.40;99.90
20839;DHT22;10580;51.092;6.828;2023-06-14T13:15:07;29.30;99.90
20839;DHT22;10580;51.092;6.828;2023-06-14T13:17:33;29.30;99.90
20839;DHT22;10580;51.092;6.828;2023-06-14T13:20:07;29.00;99.90
20839;DHT22;10580;51.092;6.828;2023-06-14T13:22:45;28.50;99.90
20839;DHT22;10580;51.092;6.828;2023-06-14T13:25:11;28.20;99.90
20839;DHT22;10580;51.092;6.828;2023-06-14T13:27:46;28.20;99.90
20839;DHT22;10580;51.092;6.828;2023-06-14T13:30:26;28.30;99.90
20839;DHT22;10580;51.092;6.828;2023-06-14T13:33:06;28.50;99.90
20839;DHT22;10580;51.092;6.828;2023-06-14T13:35:44;28.80;99.90
20839;DHT22;10580;51.092;6.828;2023-06-14T13:38:25;28.70;99.90
20839;DHT22;10580;51.092;6.828;2023-06-14T13:44:22;29.00;99.90
20839;DHT22;10580;51.092;6.828;2023-06-14T13:46:47;29.30;99.90
20839;DHT22;10580;51.092;6.828;2023-06-14T13:59:49;29.10;99.90
20839;DHT22;10580;51.092;6.828;2023-06-14T14:02:24;29.20;99.90
20839;DHT22;10580;51.092;6.828;2023-06-14T14:05:06;29.00;99.90
20839;DHT22;10580;51.092;6.828;2023-06-14T14:07:47;28.60;99.90
20839;DHT22;10580;51.092;6.828;2023-06-14T14:10:25;28.70;99.90
20839;DHT22;10580;51.092;6.828;2023-06-14T14:22:29;29.30;99.90
20839;DHT22;10580;51.092;6.828;2023-06-14T14:25:01;29.00;99.90
20839;DHT22;10580;51.092;6.828;2023-06-14T14:27:29;28.70;99.90
20839;DHT22;10580;51.092;6.828;2023-06-14T14:29:58;28.10;99.90
20839;DHT22;10580;51.092;6.828;2023-06-14T14:32:23;28.20;99.90
20839;DHT22;10580;51.092;6.828;2023-06-14T14:37:18;28.20;99.90
20839;DHT22;10580;51.092;6.828;2023-06-14T14:39:59;28.20;99.90
20839;DHT22;10580;51.092;6.828;2023-06-14T14:49:37;27.30;99.90
20839;DHT22;10580;51.092;6.828;2023-06-14T14:55:40;27.50;99.90
20839;DHT22;10580;51.092;6.828;2023-06-14T14:58:18;27.70;99.90
20839;DHT22;10580;51.092;6.828;2023-06-14T15:01:20;27.70;99.90
20839;DHT22;10580;51.092;6.828;2023-06-14T15:03:58;27.90;99.90
20839;DHT22;10580;51.092;6.828;2023-06-14T15:06:26;27.80;99.90
20839;DHT22;10580;51.092;6.828;2023-06-14T15:08:51;27.70;99.90
20839;DHT22;10580;51.092;6.828;2023-06-14T15:11:17;27.50;99.90
20839;DHT22;10580;51.092;6.828;2023-06-14T15:13:43;27.60;99.90
20839;DHT22;10580;51.092;6.828;2023-06-14T15:16:08;27.40;99.90
20839;DHT22;10580;51.092;6.828;2023-06-14T15:18:34;27.10;99.90
20839;DHT22;10580;51.092;6.828;2023-06-14T15:21:06;26.90;99.90
20839;DHT22;10580;51.092;6.828;2023-06-14T15:23:31;26.80;99.90
20839;DHT22;10580;51.092;6.828;2023-06-14T15:25:57;27.00;99.90
20839;DHT22;10580;51.092;6.828;2023-06-14T15:28:39;26.90;99.90
20839;DHT22;10580;51.092;6.828;2023-06-14T15:31:05;26.90;99.90
20839;DHT22;10580;51.092;6.828;2023-06-14T15:33:36;26.90;99.90
20839;DHT22;10580;51.092;6.828;2023-06-14T15:36:02;26.90;99.90
20839;DHT22;10580;51.092;6.828;2023-06-14T15:38:37;26.90;99.90
20839;DHT22;10580;51.092;6.828;2023-06-14T15:41:03;26.70;99.90
20839;DHT22;10580;51.092;6.828;2023-06-14T15:43:29;26.80;99.90
20839;DHT22;10580;51.092;6.828;2023-06-14T15:46:33;26.80;99.90
20839;DHT22;10580;51.092;6.828;2023-06-14T15:49:27;26.70;99.90
20839;DHT22;10580;51.092;6.828;2023-06-14T15:52:08;26.60;99.90
20839;DHT22;10580;51.092;6.828;2023-06-14T15:54:47;26.50;99.90
20839;DHT22;10580;51.092;6.828;2023-06-14T15:57:24;26.50;99.90
20839;DHT22;10580;51.092;6.828;2023-06-14T15:59:51;26.50;99.90
20839;DHT22;10580;51.092;6.828;2023-06-14T16:05:52;26.40;99.90
20839;DHT22;10580;51.092;6.828;2023-06-14T16:11:29;26.50;99.90
20839;DHT22;10580;51.092;6.828;2023-06-14T16:13:55;26.60;99.90
20839;DHT22;10580;51.092;6.828;2023-06-14T16:16:27;26.50;99.90
20839;DHT22;10580;51.092;6.828;2023-06-14T16:18:52;26.40;99.90
20839;DHT22;10580;51.092;6.828;2023-06-14T16:25:09;26.20;99.90
20839;DHT22;10580;51.092;6.828;2023-06-14T16:27:50;25.80;99.90
20839;DHT22;10580;51.092;6.828;2023-06-14T16:30:15;25.50;99.90
20839;DHT22;10580;51.092;6.828;2023-06-14T16:32:42;25.50;99.90
20839;DHT22;10580;51.092;6.828;2023-06-14T16:35:07;25.60;99.90
20839;DHT22;10580;51.092;6.828;2023-06-14T16:37:33;25.70;99.90
20839;DHT22;10580;51.092;6.828;2023-06-14T16:40:02;25.80;99.90
20839;DHT22;10580;51.092;6.828;2023-06-14T16:42:28;25.80;99.90
20839;DHT22;10580;51.092;6.828;2023-06-14T16:44:53;25.80;99.90
20839;DHT22;10580;51.092;6.828;2023-06-14T16:47:19;25.80;99.90
20839;DHT22;10580;51.092;6.828;2023-06-14T16:49:44;25.80;99.90
20839;DHT22;10580;51.092;6.828;2023-06-14T16:52:10;25.80;99.90
20839;DHT22;10580;51.092;6.828;2023-06-14T16:54:36;25.90;99.90
20839;DHT22;10580;51.092;6.828;2023-06-14T16:57:01;25.80;99.90
20839;DHT22;10580;51.092;6.828;2023-06-14T16:59:27;25.80;99.90
20839;DHT22;10580;51.092;6.828;2023-06-14T17:01:58;25.60;99.90
20839;DHT22;10580;51.092;6.828;2023-06-14T17:04:25;25.40;99.90
20839;DHT22;10580;51.092;6.828;2023-06-14T17:06:51;25.20;99.90
20839;DHT22;10580;51.092;6.828;2023-06-14T17:09:16;25.00;99.90
20839;DHT22;10580;51.092;6.828;2023-06-14T17:11:42;24.80;99.90
20839;DHT22;10580;51.092;6.828;2023-06-14T17:14:07;24.70;99.90
20839;DHT22;10580;51.092;6.828;2023-06-14T17:16:34;24.50;99.90
20839;DHT22;10580;51.092;6.828;2023-06-14T17:19:00;24.50;99.90
20839;DHT22;10580;51.092;6.828;2023-06-14T17:21:25;24.50;99.90
20839;DHT22;10580;51.092;6.828;2023-06-14T17:23:51;24.60;99.90
20839;DHT22;10580;51.092;6.828;2023-06-14T17:26:17;24.70;99.90
20839;DHT22;10580;51.092;6.828;2023-06-14T17:28:42;24.80;99.90
20839;DHT22;10580;51.092;6.828;2023-06-14T17:31:08;24.80;99.90
20839;DHT22;10580;51.092;6.828;2023-06-14T17:33:34;24.80;99.90
20839;DHT22;10580;51.092;6.828;2023-06-14T17:36:02;24.80;99.90
20839;DHT22;10580;51.092;6.828;2023-06-14T17:38:28;24.70;99.90
20839;DHT22;10580;51.092;6.828;2023-06-14T17:40:55;24.70;99.90
20839;DHT22;10580;51.092;6.828;2023-06-14T17:43:21;24.50;99.90
20839;DHT22;10580;51.092;6.828;2023-06-14T17:45:55;24.50;99.90
20839;DHT22;10580;51.092;6.828;2023-06-14T17:48:21;24.40;99.90
20839;DHT22;10580;51.092;6.828;2023-06-14T17:50:47;24.20;99.90
20839;DHT22;10580;51.092;6.828;2023-06-14T17:53:13;24.10;99.90
20839;DHT22;10580;51.092;6.828;2023-06-14T17:55:38;24.00;99.90
20839;DHT22;10580;51.092;6.828;2023-06-14T17:58:04;24.00;99.90
20839;DHT22;10580;51.092;6.828;2023-06-14T18:00:30;23.90;99.90
20839;DHT22;10580;51.092;6.828;2023-06-14T18:02:56;23.90;99.90
20839;DHT22;10580;51.092;6.828;2023-06-14T18:05:23;24.00;99.90